sensor_id;sensor_type;location;lat;lon;timestamp;temperature;humidity
59660;DHT22;45534;52.690;6.268;2023-05-10T00:02:07;12.90;99.90
59660;DHT22;45534;52.690;6.268;2023-05-10T00:04:33;12.90;99.90
59660;DHT22;45534;52.690;6.268;2023-05-10T00:06:59;12.90;99.90
59660;DHT22;45534;52.690;6.268;2023-05-10T00:09:24;12.90;99.90
59660;DHT22;45534;52.690;6.268;2023-05-10T00:11:50;12.90;99.90
59660;DHT22;45534;52.690;6.268;2023-05-10T00:14:16;12.90;99.90
59660;DHT22;45534;52.690;6.268;2023-05-10T00:16:42;12.90;99.90
59660;DHT22;45534;52.690;6.268;2023-05-10T00:19:08;12.90;99.90
59660;DHT22;45534;52.690;6.268;2023-05-10T00:21:33;12.90;99.90
59660;DHT22;45534;52.690;6.268;2023-05-10T00:23:59;12.90;99.90
59660;DHT22;45534;52.690;6.268;2023-05-10T00:26:25;12.90;99.90
59660;DHT22;45534;52.690;6.268;2023-05-10T00:28:51;12.90;99.90
59660;DHT22;45534;52.690;6.268;2023-05-10T00:31:17;12.80;99.90
59660;DHT22;45534;52.690;6.268;2023-05-10T00:33:42;12.90;99.90
59660;DHT22;45534;52.690;6.268;2023-05-10T00:36:08;12.90;99.90
59660;DHT22;45534;52.690;6.268;2023-05-10T00:38:34;12.90;99.90
59660;DHT22;45534;52.690;6.268;2023-05-10T00:41:00;12.80;99.90
59660;DHT22;45534;52.690;6.268;2023-05-10T00:43:25;12.80;99.90
59660;DHT22;45534;52.690;6.268;2023-05-10T00:45:51;12.90;99.90
59660;DHT22;45534;52.690;6.268;2023-05-10T00:48:18;12.80;99.90
59660;DHT22;45534;52.690;6.268;2023-05-10T00:50:44;12.80;99.90
59660;DHT22;45534;52.690;6.268;2023-05-10T00:53:10;12.80;99.90
59660;DHT22;45534;52.690;6.268;2023-05-10T00:55:36;12.80;99.90
59660;DHT22;45534;52.690;6.268;2023-05-10T00:58:02;12.80;99.90
59660;DHT22;45534;52.690;6.268;2023-05-10T01:00:29;12.80;99.90
59660;DHT22;45534;52.690;6.268;2023-05-10T01:02:55;12.80;99.90
59660;DHT22;45534;52.690;6.268;2023-05-10T01:05:21;12.80;99.90
59660;DHT22;45534;52.690;6.268;2023-05-10T01:07:47;12.70;99.90
59660;DHT22;45534;52.690;6.268;2023-05-10T01:10:13;12.80;99.90
59660;DHT22;45534;52.690;6.268;2023-05-10T01:12:41;12.70;99.90
59660;DHT22;45534;52.690;6.268;2023-05-10T01:15:08;12.70;99.90
59660;DHT22;45534;52.690;6.268;2023-05-10T01:17:39;12.70;99.90
59660;DHT22;45534;52.690;6.268;2023-05-10T01:20:07;12.70;99.90
59660;DHT22;45534;52.690;6.268;2023-05-10T01:31:28;12.70;99.90
59660;DHT22;45534;52.690;6.268;2023-05-10T01:34:01;12.70;99.90
59660;DHT22;45534;52.690;6.268;2023-05-10T01:36:51;12.70;99.90
59660;DHT22;45534;52.690;6.268;2023-05-10T01:39:45;12.60;99.90
59660;DHT22;45534;52.690;6.268;2023-05-10T01:42:21;12.60;99.90
59660;DHT22;45534;52.690;6.268;2023-05-10T01:45:07;12.60;99.90
59660;DHT22;45534;52.690;6.268;2023-05-10T01:47:47;12.60;99.90
59660;DHT22;45534;52.690;6.268;2023-05-10T01:50:19;12.60;99.90
59660;DHT22;45534;52.690;6.268;2023-05-10T01:52:51;12.60;99.90
59660;DHT22;45534;52.690;6.268;2023-05-10T01:55:20;12.60;99.90
59660;DHT22;45534;52.690;6.268;2023-05-10T01:57:48;12.60;99.90
59660;DHT22;45534;52.690;6.268;2023-05-10T02:00:18;12.60;99.90
59660;DHT22;45534;52.690;6.268;2023-05-10T02:02:46;12.60;99.90
59660;DHT22;45534;52.690;6.268;2023-05-10T02:05:14;12.60;99.90
59660;DHT22;45534;52.690;6.268;2023-05-10T02:07:41;12.60;99.90
59660;DHT22;45534;52.690;6.268;2023-05-10T02:10:09;12.60;99.90
59660;DHT22;45534;52.690;6.268;2023-05-10T02:12:36;12.60;99.90
59660;DHT22;45534;52.690;6.268;2023-05-10T02:15:05;12.60;99.90
59660;DHT22;45534;52.690;6.268;2023-05-10T02:17:33;12.60;99.90
59660;DHT22;45534;52.690;6.268;2023-05-10T02:20:01;12.60;99.90
59660;DHT22;45534;52.690;6.268;2023-05-10T02:26:20;12.60;99.90
59660;DHT22;45534;52.690;6.268;2023-05-10T02:30:12;12.50;99.90
59660;DHT22;45534;52.690;6.268;2023-05-10T02:33:00;12.50;99.90
59660;DHT22;45534;52.690;6.268;2023-05-10T02:35:28;12.50;99.90
59660;DHT22;45534;52.690;6.268;2023-05-10T02:37:54;12.50;99.90
59660;DHT22;45534;52.690;6.268;2023-05-10T02:40:21;12.50;99.90
59660;DHT22;45534;52.690;6.268;2023-05-10T02:42:50;12.50;99.90
59660;DHT22;45534;52.690;6.268;2023-05-10T02:45:20;12.50;99.90
59660;DHT22;45534;52.690;6.268;2023-05-10T02:47:47;12.40;99.90
59660;DHT22;45534;52.690;6.268;2023-05-10T02:50:14;12.50;99.90
59660;DHT22;45534;52.690;6.268;2023-05-10T02:52:49;12.40;99.90
59660;DHT22;45534;52.690;6.268;2023-05-10T02:55:19;12.40;99.90
59660;DHT22;45534;52.690;6.268;2023-05-10T02:57:51;12.40;99.90
59660;DHT22;45534;52.690;6.268;2023-05-10T03:00:17;12.40;99.90
59660;DHT22;45534;52.690;6.268;2023-05-10T03:02:43;12.40;99.90
59660;DHT22;45534;52.690;6.268;2023-05-10T03:05:09;12.40;99.90
59660;DHT22;45534;52.690;6.268;2023-05-10T03:07:34;12.50;99.90
59660;DHT22;45534;52.690;6.268;2023-05-10T03:10:00;12.40;99.90
59660;DHT22;45534;52.690;6.268;2023-05-10T03:15:55;12.50;99.90
59660;DHT22;45534;52.690;6.268;2023-05-10T03:18:29;12.40;99.90
59660;DHT22;45534;52.690;6.268;2023-05-10T03:20:59;12.40;99.90
59660;DHT22;45534;52.690;6.268;2023-05-10T03:23:43;12.40;99.90
59660;DHT22;45534;52.690;6.268;2023-05-10T03:26:17;12.40;99.90
59660;DHT22;45534;52.690;6.268;2023-05-10T03:28:43;12.40;99.90
59660;DHT22;45534;52.690;6.268;2023-05-10T03:31:10;12.40;99.90
59660;DHT22;45534;52.690;6.268;2023-05-10T03:33:37;12.40;99.90
59660;DHT22;45534;52.690;6.268;2023-05-10T03:36:10;12.40;99.90
59660;DHT22;45534;52.690;6.268;2023-05-10T03:38:36;12.40;99.90
59660;DHT22;45534;52.690;6.268;2023-05-10T03:41:02;12.40;99.90
59660;DHT22;45534;52.690;6.268;2023-05-10T03:43:27;12.40;99.90
59660;DHT22;45534;52.690;6.268;2023-05-10T03:45:53;12.40;99.90
59660;DHT22;45534;52.690;6.268;2023-05-10T03:48:19;12.40;99.90
59660;DHT22;45534;52.690;6.268;2023-05-10T03:50:45;12.40;99.90
59660;DHT22;45534;52.690;6.268;2023-05-10T03:53:11;12.40;99.90
59660;DHT22;45534;52.690;6.268;2023-05-10T03:55:37;12.40;99.90
59660;DHT22;45534;52.690;6.268;2023-05-10T03:58:03;12.40;99.90
59660;DHT22;45534;52.690;6.268;2023-05-10T04:00:29;12.40;99.90
59660;DHT22;45534;52.690;6.268;2023-05-10T04:02:55;12.40;99.90
59660;DHT22;45534;52.690;6.268;2023-05-10T04:05:21;12.40;99.90
59660;DHT22;45534;52.690;6.268;2023-05-10T04:07:47;12.40;99.90
59660;DHT22;45534;52.690;6.268;2023-05-10T04:10:14;12.50;99.90
59660;DHT22;45534;52.690;6.268;2023-05-10T04:12:41;12.40;99.90
59660;DHT22;45534;52.690;6.268;2023-05-10T04:15:07;12.40;99.90
59660;DHT22;45534;52.690;6.268;2023-05-10T04:17:33;12.40;99.90
59660;DHT22;45534;52.690;6.268;2023-05-10T04:19:59;12.40;99.90
59660;DHT22;45534;52.690;6.268;2023-05-10T04:22:25;12.40;99.90
59660;DHT22;45534;52.690;6.268;2023-05-10T04:24:50;12.40;99.90
59660;DHT22;45534;52.690;6.268;2023-05-10T04:27:16;12.40;99.90
59660;DHT22;45534;52.690;6.268;2023-05-10T04:29:42;12.40;99.90
59660;DHT22;45534;52.690;6.268;2023-05-10T04:32:08;12.40;99.90
59660;DHT22;45534;52.690;6.268;2023-05-10T04:34:36;12.40;99.90
59660;DHT22;45534;52.690;6.268;2023-05-10T04:37:01;12.40;99.90
59660;DHT22;45534;52.690;6.268;2023-05-10T04:39:27;12.40;99.90
59660;DHT22;45534;52.690;6.268;2023-05-10T04:41:53;12.40;99.90
59660;DHT22;45534;52.690;6.268;2023-05-10T04:44:18;12.40;99.90
59660;DHT22;45534;52.690;6.268;2023-05-10T04:46:44;12.40;99.90
59660;DHT22;45534;52.690;6.268;2023-05-10T04:49:10;12.40;99.90
59660;DHT22;45534;52.690;6.268;2023-05-10T04:51:35;12.40;99.90
59660;DHT22;45534;52.690;6.268;2023-05-10T04:54:01;12.40;99.90
59660;DHT22;45534;52.690;6.268;2023-05-10T04:56:27;12.40;99.90
59660;DHT22;45534;52.690;6.268;2023-05-10T04:58:52;12.40;99.90
59660;DHT22;45534;52.690;6.268;2023-05-10T05:01:18;12.40;99.90
59660;DHT22;45534;52.690;6.268;2023-05-10T05:03:44;12.40;99.90
59660;DHT22;45534;52.690;6.268;2023-05-10T05:06:10;12.50;99.90
59660;DHT22;45534;52.690;6.268;2023-05-10T05:08:35;12.50;99.90
59660;DHT22;45534;52.690;6.268;2023-05-10T05:11:01;12.50;99.90
59660;DHT22;45534;52.690;6.268;2023-05-10T05:13:27;12.50;99.90
59660;DHT22;45534;52.690;6.268;2023-05-10T05:15:52;12.50;99.90
59660;DHT22;45534;52.690;6.268;2023-05-10T05:18:18;12.50;99.90
59660;DHT22;45534;52.690;6.268;2023-05-10T05:20:44;12.50;99.90
59660;DHT22;45534;52.690;6.268;2023-05-10T05:23:10;12.50;99.90
59660;DHT22;45534;52.690;6.268;2023-05-10T05:25:36;12.50;99.90
59660;DHT22;45534;52.690;6.268;2023-05-10T05:28:01;12.50;99.90
59660;DHT22;45534;52.690;6.268;2023-05-10T05:30:27;12.50;99.90
59660;DHT22;45534;52.690;6.268;2023-05-10T05:32:53;12.50;99.90
59660;DHT22;45534;52.690;6.268;2023-05-10T05:35:18;12.50;99.90
59660;DHT22;45534;52.690;6.268;2023-05-10T05:37:44;12.60;99.90
59660;DHT22;45534;52.690;6.268;2023-05-10T05:40:12;12.60;99.90
59660;DHT22;45534;52.690;6.268;2023-05-10T05:42:39;12.60;99.90
59660;DHT22;45534;52.690;6.268;2023-05-10T05:45:05;12.60;99.90
59660;DHT22;45534;52.690;6.268;2023-05-10T05:47:31;12.70;99.90
59660;DHT22;45534;52.690;6.268;2023-05-10T05:49:57;12.70;99.90
59660;DHT22;45534;52.690;6.268;2023-05-10T05:52:23;12.80;99.90
59660;DHT22;45534;52.690;6.268;2023-05-10T05:54:48;12.80;99.90
59660;DHT22;45534;52.690;6.268;2023-05-10T05:57:14;12.80;99.90
59660;DHT22;45534;52.690;6.268;2023-05-10T05:59:40;12.90;99.90
59660;DHT22;45534;52.690;6.268;2023-05-10T06:02:10;12.90;99.90
59660;DHT22;45534;52.690;6.268;2023-05-10T06:04:35;12.90;99.90
59660;DHT22;45534;52.690;6.268;2023-05-10T06:07:01;13.00;99.90
59660;DHT22;45534;52.690;6.268;2023-05-10T06:09:27;13.00;99.90
59660;DHT22;45534;52.690;6.268;2023-05-10T06:11:52;13.00;99.90
59660;DHT22;45534;52.690;6.268;2023-05-10T06:14:20;13.00;99.90
59660;DHT22;45534;52.690;6.268;2023-05-10T06:16:46;12.90;99.90
59660;DHT22;45534;52.690;6.268;2023-05-10T06:19:12;13.00;99.90
59660;DHT22;45534;52.690;6.268;2023-05-10T06:21:38;13.00;99.90
59660;DHT22;45534;52.690;6.268;2023-05-10T06:24:04;13.00;99.90
59660;DHT22;45534;52.690;6.268;2023-05-10T06:26:30;12.90;99.90
59660;DHT22;45534;52.690;6.268;2023-05-10T06:28:56;13.00;99.90
59660;DHT22;45534;52.690;6.268;2023-05-10T06:31:22;13.00;99.90
59660;DHT22;45534;52.690;6.268;2023-05-10T06:33:47;13.00;99.90
59660;DHT22;45534;52.690;6.268;2023-05-10T06:36:13;13.10;99.90
59660;DHT22;45534;52.690;6.268;2023-05-10T06:38:39;13.10;99.90
59660;DHT22;45534;52.690;6.268;2023-05-10T06:41:05;13.20;99.90
59660;DHT22;45534;52.690;6.268;2023-05-10T06:43:31;13.20;99.90
59660;DHT22;45534;52.690;6.268;2023-05-10T06:45:57;13.30;99.90
59660;DHT22;45534;52.690;6.268;2023-05-10T06:48:23;13.30;99.90
59660;DHT22;45534;52.690;6.268;2023-05-10T06:50:48;13.30;99.90
59660;DHT22;45534;52.690;6.268;2023-05-10T06:53:14;13.40;99.90
59660;DHT22;45534;52.690;6.268;2023-05-10T06:55:40;13.40;99.90
59660;DHT22;45534;52.690;6.268;2023-05-10T06:58:06;13.50;99.90
59660;DHT22;45534;52.690;6.268;2023-05-10T07:00:32;13.40;99.90
59660;DHT22;45534;52.690;6.268;2023-05-10T07:02:57;13.50;99.90
59660;DHT22;45534;52.690;6.268;2023-05-10T07:05:23;13.50;99.90
59660;DHT22;45534;52.690;6.268;2023-05-10T07:07:49;13.40;99.90
59660;DHT22;45534;52.690;6.268;2023-05-10T07:10:15;13.50;99.90
59660;DHT22;45534;52.690;6.268;2023-05-10T07:12:41;13.50;99.90
59660;DHT22;45534;52.690;6.268;2023-05-10T07:15:07;13.60;99.90
59660;DHT22;45534;52.690;6.268;2023-05-10T07:17:33;13.60;99.90
59660;DHT22;45534;52.690;6.268;2023-05-10T07:19:59;13.70;99.90
59660;DHT22;45534;52.690;6.268;2023-05-10T07:22:25;13.60;99.90
59660;DHT22;45534;52.690;6.268;2023-05-10T07:24:51;13.60;99.90
59660;DHT22;45534;52.690;6.268;2023-05-10T07:27:17;13.60;99.90
59660;DHT22;45534;52.690;6.268;2023-05-10T07:29:42;13.60;99.90
59660;DHT22;45534;52.690;6.268;2023-05-10T07:32:08;13.60;99.90
59660;DHT22;45534;52.690;6.268;2023-05-10T07:34:34;13.60;99.90
59660;DHT22;45534;52.690;6.268;2023-05-10T07:37:00;13.70;99.90
59660;DHT22;45534;52.690;6.268;2023-05-10T07:39:27;13.80;99.90
59660;DHT22;45534;52.690;6.268;2023-05-10T07:41:53;13.90;99.90
59660;DHT22;45534;52.690;6.268;2023-05-10T07:44:19;14.00;99.90
59660;DHT22;45534;52.690;6.268;2023-05-10T07:46:46;14.10;99.90
59660;DHT22;45534;52.690;6.268;2023-05-10T07:49:13;14.20;99.90
59660;DHT22;45534;52.690;6.268;2023-05-10T07:51:38;14.20;99.90
59660;DHT22;45534;52.690;6.268;2023-05-10T07:54:04;14.10;99.90
59660;DHT22;45534;52.690;6.268;2023-05-10T07:56:31;14.20;99.90
59660;DHT22;45534;52.690;6.268;2023-05-10T07:59:00;14.20;99.90
59660;DHT22;45534;52.690;6.268;2023-05-10T08:01:29;14.20;99.90
59660;DHT22;45534;52.690;6.268;2023-05-10T08:03:55;14.20;99.90
59660;DHT22;45534;52.690;6.268;2023-05-10T08:06:20;14.30;99.90
59660;DHT22;45534;52.690;6.268;2023-05-10T08:08:47;14.30;99.90
59660;DHT22;45534;52.690;6.268;2023-05-10T08:11:16;14.30;99.90
59660;DHT22;45534;52.690;6.268;2023-05-10T08:13:43;14.40;99.90
59660;DHT22;45534;52.690;6.268;2023-05-10T08:16:09;14.40;99.90
59660;DHT22;45534;52.690;6.268;2023-05-10T08:18:35;14.20;99.90
59660;DHT22;45534;52.690;6.268;2023-05-10T08:21:00;14.20;99.90
59660;DHT22;45534;52.690;6.268;2023-05-10T08:23:26;14.30;99.90
59660;DHT22;45534;52.690;6.268;2023-05-10T08:25:52;14.40;99.90
59660;DHT22;45534;52.690;6.268;2023-05-10T08:28:17;14.40;99.90
59660;DHT22;45534;52.690;6.268;2023-05-10T08:30:43;14.50;99.90
59660;DHT22;45534;52.690;6.268;2023-05-10T08:33:09;14.60;99.90
59660;DHT22;45534;52.690;6.268;2023-05-10T08:35:34;14.70;99.90
59660;DHT22;45534;52.690;6.268;2023-05-10T08:38:00;14.70;99.90
59660;DHT22;45534;52.690;6.268;2023-05-10T08:40:26;14.90;99.90
59660;DHT22;45534;52.690;6.268;2023-05-10T08:42:59;15.00;99.90
59660;DHT22;45534;52.690;6.268;2023-05-10T08:45:32;15.20;99.90
59660;DHT22;45534;52.690;6.268;2023-05-10T08:48:01;15.30;99.90
59660;DHT22;45534;52.690;6.268;2023-05-10T08:50:27;15.40;99.90
59660;DHT22;45534;52.690;6.268;2023-05-10T08:52:55;15.40;99.90
59660;DHT22;45534;52.690;6.268;2023-05-10T08:55:23;15.40;99.90
59660;DHT22;45534;52.690;6.268;2023-05-10T08:57:49;15.50;99.90
59660;DHT22;45534;52.690;6.268;2023-05-10T09:00:17;15.60;99.90
59660;DHT22;45534;52.690;6.268;2023-05-10T09:02:43;15.70;99.90
59660;DHT22;45534;52.690;6.268;2023-05-10T09:05:11;15.80;99.90
59660;DHT22;45534;52.690;6.268;2023-05-10T09:07:37;15.80;99.90
59660;DHT22;45534;52.690;6.268;2023-05-10T09:10:04;15.80;99.90
59660;DHT22;45534;52.690;6.268;2023-05-10T09:12:30;15.80;99.90
59660;DHT22;45534;52.690;6.268;2023-05-10T09:14:57;15.80;99.90
59660;DHT22;45534;52.690;6.268;2023-05-10T09:17:25;15.80;99.90
59660;DHT22;45534;52.690;6.268;2023-05-10T09:20:03;15.80;99.90
59660;DHT22;45534;52.690;6.268;2023-05-10T09:22:32;15.80;99.90
59660;DHT22;45534;52.690;6.268;2023-05-10T09:25:09;15.80;99.90
59660;DHT22;45534;52.690;6.268;2023-05-10T09:27:37;15.80;99.90
59660;DHT22;45534;52.690;6.268;2023-05-10T09:30:04;15.70;99.90
59660;DHT22;45534;52.690;6.268;2023-05-10T09:32:41;15.70;99.90
59660;DHT22;45534;52.690;6.268;2023-05-10T09:35:20;15.70;99.90
59660;DHT22;45534;52.690;6.268;2023-05-10T09:37:50;15.90;99.90
59660;DHT22;45534;52.690;6.268;2023-05-10T09:40:27;15.90;99.90
59660;DHT22;45534;52.690;6.268;2023-05-10T09:45:19;15.80;99.90
59660;DHT22;45534;52.690;6.268;2023-05-10T09:47:45;15.80;99.90
59660;DHT22;45534;52.690;6.268;2023-05-10T09:50:11;15.70;99.90
59660;DHT22;45534;52.690;6.268;2023-05-10T09:52:57;15.80;99.90
59660;DHT22;45534;52.690;6.268;2023-05-10T09:58:01;15.70;99.90
59660;DHT22;45534;52.690;6.268;2023-05-10T10:00:28;15.80;99.90
59660;DHT22;45534;52.690;6.268;2023-05-10T10:03:00;15.80;99.90
59660;DHT22;45534;52.690;6.268;2023-05-10T10:05:32;15.90;99.90
59660;DHT22;45534;52.690;6.268;2023-05-10T10:08:00;16.10;99.90
59660;DHT22;45534;52.690;6.268;2023-05-10T10:10:26;16.10;99.90
59660;DHT22;45534;52.690;6.268;2023-05-10T10:12:53;16.10;99.90
59660;DHT22;45534;52.690;6.268;2023-05-10T10:15:21;16.20;99.90
59660;DHT22;45534;52.690;6.268;2023-05-10T10:17:48;16.10;99.90
59660;DHT22;45534;52.690;6.268;2023-05-10T10:20:15;15.90;99.90
59660;DHT22;45534;52.690;6.268;2023-05-10T10:22:40;15.90;99.90
59660;DHT22;45534;52.690;6.268;2023-05-10T10:25:08;15.90;99.90
59660;DHT22;45534;52.690;6.268;2023-05-10T10:35:33;15.90;99.90
59660;DHT22;45534;52.690;6.268;2023-05-10T10:38:00;15.90;99.90
59660;DHT22;45534;52.690;6.268;2023-05-10T10:40:33;15.80;99.90
59660;DHT22;45534;52.690;6.268;2023-05-10T10:43:22;15.80;99.90
59660;DHT22;45534;52.690;6.268;2023-05-10T10:48:36;15.70;99.90
59660;DHT22;45534;52.690;6.268;2023-05-10T10:51:02;15.60;99.90
59660;DHT22;45534;52.690;6.268;2023-05-10T10:53:28;15.70;99.90
59660;DHT22;45534;52.690;6.268;2023-05-10T10:56:05;15.70;99.90
59660;DHT22;45534;52.690;6.268;2023-05-10T10:58:33;15.80;99.90
59660;DHT22;45534;52.690;6.268;2023-05-10T11:01:14;15.70;99.90
59660;DHT22;45534;52.690;6.268;2023-05-10T11:04:26;15.70;99.90
59660;DHT22;45534;52.690;6.268;2023-05-10T11:06:34;15.70;99.90
59660;DHT22;45534;52.690;6.268;2023-05-10T11:09:08;15.70;99.90
59660;DHT22;45534;52.690;6.268;2023-05-10T11:11:35;15.70;99.90
59660;DHT22;45534;52.690;6.268;2023-05-10T11:14:07;15.70;99.90
59660;DHT22;45534;52.690;6.268;2023-05-10T11:16:43;15.60;99.90
59660;DHT22;45534;52.690;6.268;2023-05-10T11:19:14;15.50;99.90
59660;DHT22;45534;52.690;6.268;2023-05-10T11:21:50;15.40;99.90
59660;DHT22;45534;52.690;6.268;2023-05-10T11:24:19;15.30;99.90
59660;DHT22;45534;52.690;6.268;2023-05-10T11:26:45;15.30;99.90
59660;DHT22;45534;52.690;6.268;2023-05-10T11:29:13;15.20;99.90
59660;DHT22;45534;52.690;6.268;2023-05-10T11:31:43;15.10;99.90
59660;DHT22;45534;52.690;6.268;2023-05-10T11:34:09;15.10;99.90
59660;DHT22;45534;52.690;6.268;2023-05-10T11:36:35;15.00;99.90
59660;DHT22;45534;52.690;6.268;2023-05-10T11:39:02;15.00;99.90
59660;DHT22;45534;52.690;6.268;2023-05-10T11:41:31;14.90;99.90
59660;DHT22;45534;52.690;6.268;2023-05-10T11:43:57;14.90;99.90
59660;DHT22;45534;52.690;6.268;2023-05-10T11:46:25;14.90;99.90
59660;DHT22;45534;52.690;6.268;2023-05-10T11:48:58;15.00;99.90
59660;DHT22;45534;52.690;6.268;2023-05-10T11:51:27;15.00;99.90
59660;DHT22;45534;52.690;6.268;2023-05-10T11:53:54;15.10;99.90
59660;DHT22;45534;52.690;6.268;2023-05-10T11:56:20;15.10;99.90
59660;DHT22;45534;52.690;6.268;2023-05-10T11:58:55;15.20;99.90
59660;DHT22;45534;52.690;6.268;2023-05-10T12:01:21;15.30;99.90
59660;DHT22;45534;52.690;6.268;2023-05-10T12:03:49;15.40;99.90
59660;DHT22;45534;52.690;6.268;2023-05-10T12:06:15;15.50;99.90
59660;DHT22;45534;52.690;6.268;2023-05-10T12:08:46;15.60;99.90
59660;DHT22;45534;52.690;6.268;2023-05-10T12:11:12;15.70;99.90
59660;DHT22;45534;52.690;6.268;2023-05-10T12:13:43;15.70;99.90
59660;DHT22;45534;52.690;6.268;2023-05-10T12:16:24;15.70;99.90
59660;DHT22;45534;52.690;6.268;2023-05-10T12:18:50;15.80;99.90
59660;DHT22;45534;52.690;6.268;2023-05-10T12:21:17;15.80;99.90
59660;DHT22;45534;52.690;6.268;2023-05-10T12:23:45;15.90;99.90
59660;DHT22;45534;52.690;6.268;2023-05-10T12:26:11;15.90;99.90
59660;DHT22;45534;52.690;6.268;2023-05-10T12:28:37;15.80;99.90
59660;DHT22;45534;52.690;6.268;2023-05-10T12:31:05;15.80;99.90
59660;DHT22;45534;52.690;6.268;2023-05-10T12:33:42;15.80;99.90
59660;DHT22;45534;52.690;6.268;2023-05-10T12:36:09;15.70;99.90
59660;DHT22;45534;52.690;6.268;2023-05-10T12:38:40;15.60;99.90
59660;DHT22;45534;52.690;6.268;2023-05-10T12:41:18;15.50;99.90
59660;DHT22;45534;52.690;6.268;2023-05-10T12:43:44;15.50;99.90
59660;DHT22;45534;52.690;6.268;2023-05-10T12:46:15;15.50;99.90
59660;DHT22;45534;52.690;6.268;2023-05-10T12:48:43;15.40;99.90
59660;DHT22;45534;52.690;6.268;2023-05-10T12:51:09;15.30;99.90
59660;DHT22;45534;52.690;6.268;2023-05-10T12:53:37;15.30;99.90
59660;DHT22;45534;52.690;6.268;2023-05-10T12:56:03;15.30;99.90
59660;DHT22;45534;52.690;6.268;2023-05-10T12:58:29;15.30;99.90
59660;DHT22;45534;52.690;6.268;2023-05-10T13:00:54;15.20;99.90
59660;DHT22;45534;52.690;6.268;2023-05-10T13:03:22;15.20;99.90
59660;DHT22;45534;52.690;6.268;2023-05-10T13:05:48;15.20;99.90
59660;DHT22;45534;52.690;6.268;2023-05-10T13:08:14;15.30;99.90
59660;DHT22;45534;52.690;6.268;2023-05-10T13:10:39;15.20;99.90
59660;DHT22;45534;52.690;6.268;2023-05-10T13:13:05;15.30;99.90
59660;DHT22;45534;52.690;6.268;2023-05-10T13:15:32;15.30;99.90
59660;DHT22;45534;52.690;6.268;2023-05-10T13:17:58;15.30;99.90
59660;DHT22;45534;52.690;6.268;2023-05-10T13:20:25;15.20;99.90
59660;DHT22;45534;52.690;6.268;2023-05-10T13:22:50;15.20;99.90
59660;DHT22;45534;52.690;6.268;2023-05-10T13:25:16;15.20;99.90
59660;DHT22;45534;52.690;6.268;2023-05-10T13:27:42;15.10;99.90
59660;DHT22;45534;52.690;6.268;2023-05-10T13:30:09;15.00;99.90
59660;DHT22;45534;52.690;6.268;2023-05-10T13:32:37;14.90;99.90
59660;DHT22;45534;52.690;6.268;2023-05-10T13:35:03;14.90;99.90
59660;DHT22;45534;52.690;6.268;2023-05-10T13:37:30;14.80;99.90
59660;DHT22;45534;52.690;6.268;2023-05-10T13:39:56;14.60;99.90
59660;DHT22;45534;52.690;6.268;2023-05-10T13:42:22;14.50;99.90
59660;DHT22;45534;52.690;6.268;2023-05-10T13:44:52;14.30;99.90
59660;DHT22;45534;52.690;6.268;2023-05-10T13:47:18;14.20;99.90
59660;DHT22;45534;52.690;6.268;2023-05-10T13:49:43;14.20;99.90
59660;DHT22;45534;52.690;6.268;2023-05-10T13:52:09;14.20;99.90
59660;DHT22;45534;52.690;6.268;2023-05-10T13:54:38;14.20;99.90
59660;DHT22;45534;52.690;6.268;2023-05-10T13:57:04;14.20;99.90
59660;DHT22;45534;52.690;6.268;2023-05-10T13:59:30;14.30;99.90
59660;DHT22;45534;52.690;6.268;2023-05-10T14:01:59;14.30;99.90
59660;DHT22;45534;52.690;6.268;2023-05-10T14:04:28;14.40;99.90
59660;DHT22;45534;52.690;6.268;2023-05-10T14:06:53;14.50;99.90
59660;DHT22;45534;52.690;6.268;2023-05-10T14:09:19;14.60;99.90
59660;DHT22;45534;52.690;6.268;2023-05-10T14:11:45;14.60;99.90
59660;DHT22;45534;52.690;6.268;2023-05-10T14:14:11;14.70;99.90
59660;DHT22;45534;52.690;6.268;2023-05-10T14:16:38;14.80;99.90
59660;DHT22;45534;52.690;6.268;2023-05-10T14:19:03;14.90;99.90
59660;DHT22;45534;52.690;6.268;2023-05-10T14:21:29;15.00;99.90
59660;DHT22;45534;52.690;6.268;2023-05-10T14:23:56;15.10;99.90
59660;DHT22;45534;52.690;6.268;2023-05-10T14:26:21;15.30;99.90
59660;DHT22;45534;52.690;6.268;2023-05-10T14:28:47;15.30;99.90
59660;DHT22;45534;52.690;6.268;2023-05-10T14:31:13;15.50;99.90
59660;DHT22;45534;52.690;6.268;2023-05-10T14:33:40;15.50;99.90
59660;DHT22;45534;52.690;6.268;2023-05-10T14:36:06;15.70;99.90
59660;DHT22;45534;52.690;6.268;2023-05-10T14:38:32;15.70;99.90
59660;DHT22;45534;52.690;6.268;2023-05-10T14:40:58;15.80;99.90
59660;DHT22;45534;52.690;6.268;2023-05-10T14:43:24;15.90;99.90
59660;DHT22;45534;52.690;6.268;2023-05-10T14:45:49;16.00;99.90
59660;DHT22;45534;52.690;6.268;2023-05-10T14:48:18;15.90;99.90
59660;DHT22;45534;52.690;6.268;2023-05-10T14:50:44;15.70;99.90
59660;DHT22;45534;52.690;6.268;2023-05-10T14:53:10;15.40;99.90
59660;DHT22;45534;52.690;6.268;2023-05-10T14:55:36;15.30;99.90
59660;DHT22;45534;52.690;6.268;2023-05-10T14:58:02;15.20;99.90
59660;DHT22;45534;52.690;6.268;2023-05-10T15:00:29;15.20;99.90
59660;DHT22;45534;52.690;6.268;2023-05-10T15:02:55;15.20;99.90
59660;DHT22;45534;52.690;6.268;2023-05-10T15:05:21;15.10;99.90
59660;DHT22;45534;52.690;6.268;2023-05-10T15:07:47;15.20;99.90
59660;DHT22;45534;52.690;6.268;2023-05-10T15:10:13;15.20;99.90
59660;DHT22;45534;52.690;6.268;2023-05-10T15:12:39;15.20;99.90
59660;DHT22;45534;52.690;6.268;2023-05-10T15:15:06;15.30;99.90
59660;DHT22;45534;52.690;6.268;2023-05-10T15:17:32;15.40;99.90
59660;DHT22;45534;52.690;6.268;2023-05-10T15:19:57;15.50;99.90
59660;DHT22;45534;52.690;6.268;2023-05-10T15:22:23;15.50;99.90
59660;DHT22;45534;52.690;6.268;2023-05-10T15:24:49;15.60;99.90
59660;DHT22;45534;52.690;6.268;2023-05-10T15:27:15;15.70;99.90
59660;DHT22;45534;52.690;6.268;2023-05-10T15:29:41;15.80;99.90
59660;DHT22;45534;52.690;6.268;2023-05-10T15:32:07;15.90;99.90
59660;DHT22;45534;52.690;6.268;2023-05-10T15:34:32;15.90;99.90
59660;DHT22;45534;52.690;6.268;2023-05-10T15:36:58;16.00;99.90
59660;DHT22;45534;52.690;6.268;2023-05-10T15:39:24;16.00;99.90
59660;DHT22;45534;52.690;6.268;2023-05-10T15:41:50;16.10;99.90
59660;DHT22;45534;52.690;6.268;2023-05-10T15:44:16;16.10;99.90
59660;DHT22;45534;52.690;6.268;2023-05-10T15:46:42;16.10;99.90
59660;DHT22;45534;52.690;6.268;2023-05-10T15:49:07;16.00;99.90
59660;DHT22;45534;52.690;6.268;2023-05-10T15:51:33;15.90;99.90
59660;DHT22;45534;52.690;6.268;2023-05-10T15:53:59;15.80;99.90
59660;DHT22;45534;52.690;6.268;2023-05-10T15:56:27;15.80;99.90
59660;DHT22;45534;52.690;6.268;2023-05-10T15:58:53;15.90;99.90
59660;DHT22;45534;52.690;6.268;2023-05-10T16:01:19;15.80;99.90
59660;DHT22;45534;52.690;6.268;2023-05-10T16:03:45;15.70;99.90
59660;DHT22;45534;52.690;6.268;2023-05-10T16:06:11;15.70;99.90